sensor_id;sensor_type;location;lat;lon;timestamp;P1;durP1;ratioP1;P2;durP2;ratioP2
12332;SDS011;6232;48.094;11.288;2022-11-11T00:01:42;5.20;;;4.30;;
12332;SDS011;6232;48.094;11.288;2022-11-11T00:04:28;6.17;;;4.43;;
12332;SDS011;6232;48.094;11.288;2022-11-11T00:07:13;13.93;;;4.50;;
12332;SDS011;6232;48.094;11.288;2022-11-11T00:09:59;8.20;;;5.47;;
12332;SDS011;6232;48.094;11.288;2022-11-11T00:12:44;8.33;;;4.70;;
12332;SDS011;6232;48.094;11.288;2022-11-11T00:15:30;6.10;;;5.10;;
12332;SDS011;6232;48.094;11.288;2022-11-11T00:18:15;4.73;;;4.33;;
12332;SDS011;6232;48.094;11.288;2022-11-11T00:21:20;6.00;;;4.80;;
12332;SDS011;6232;48.094;11.288;2022-11-11T00:24:25;5.80;;;4.60;;
12332;SDS011;6232;48.094;11.288;2022-11-11T00:27:29;9.03;;;3.80;;
12332;SDS011;6232;48.094;11.288;2022-11-11T00:30:15;6.43;;;4.50;;
12332;SDS011;6232;48.094;11.288;2022-11-11T00:33:00;5.90;;;4.10;;
12332;SDS011;6232;48.094;11.288;2022-11-11T00:35:46;5.33;;;4.37;;
12332;SDS011;6232;48.094;11.288;2022-11-11T00:38:37;4.40;;;3.90;;
12332;SDS011;6232;48.094;11.288;2022-11-11T00:41:33;5.03;;;4.30;;
12332;SDS011;6232;48.094;11.288;2022-11-11T00:44:19;4.90;;;4.43;;
12332;SDS011;6232;48.094;11.288;2022-11-11T00:47:04;5.10;;;4.60;;
12332;SDS011;6232;48.094;11.288;2022-11-11T00:50:11;5.50;;;4.77;;
12332;SDS011;6232;48.094;11.288;2022-11-11T00:53:16;4.53;;;4.13;;
12332;SDS011;6232;48.094;11.288;2022-11-11T00:56:03;6.30;;;4.03;;
12332;SDS011;6232;48.094;11.288;2022-11-11T00:58:48;6.17;;;4.50;;
12332;SDS011;6232;48.094;11.288;2022-11-11T01:01:35;5.90;;;5.00;;
12332;SDS011;6232;48.094;11.288;2022-11-11T01:04:21;7.20;;;4.77;;
12332;SDS011;6232;48.094;11.288;2022-11-11T01:07:07;6.33;;;4.87;;
12332;SDS011;6232;48.094;11.288;2022-11-11T01:09:52;5.57;;;4.97;;
12332;SDS011;6232;48.094;11.288;2022-11-11T01:12:38;7.30;;;5.73;;
12332;SDS011;6232;48.094;11.288;2022-11-11T01:15:23;5.30;;;4.80;;
12332;SDS011;6232;48.094;11.288;2022-11-11T01:18:09;5.17;;;4.37;;
12332;SDS011;6232;48.094;11.288;2022-11-11T01:21:18;4.10;;;3.80;;
12332;SDS011;6232;48.094;11.288;2022-11-11T01:24:02;4.77;;;4.37;;
12332;SDS011;6232;48.094;11.288;2022-11-11T01:26:47;9.00;;;4.80;;
12332;SDS011;6232;48.094;11.288;2022-11-11T01:29:33;7.37;;;4.93;;
12332;SDS011;6232;48.094;11.288;2022-11-11T01:32:18;6.07;;;4.27;;
12332;SDS011;6232;48.094;11.288;2022-11-11T01:35:04;8.90;;;4.17;;
12332;SDS011;6232;48.094;11.288;2022-11-11T01:37:50;4.60;;;4.20;;
12332;SDS011;6232;48.094;11.288;2022-11-11T01:40:53;5.00;;;4.50;;
12332;SDS011;6232;48.094;11.288;2022-11-11T01:43:39;6.93;;;4.50;;
12332;SDS011;6232;48.094;11.288;2022-11-11T01:46:35;6.50;;;3.93;;
12332;SDS011;6232;48.094;11.288;2022-11-11T01:57:49;5.57;;;4.23;;
12332;SDS011;6232;48.094;11.288;2022-11-11T02:00:35;4.90;;;3.90;;
12332;SDS011;6232;48.094;11.288;2022-11-11T02:03:21;7.47;;;4.20;;
12332;SDS011;6232;48.094;11.288;2022-11-11T02:06:07;4.97;;;3.67;;
12332;SDS011;6232;48.094;11.288;2022-11-11T02:08:52;5.10;;;4.10;;
12332;SDS011;6232;48.094;11.288;2022-11-11T02:11:39;6.60;;;3.60;;
12332;SDS011;6232;48.094;11.288;2022-11-11T02:14:44;4.30;;;3.90;;
12332;SDS011;6232;48.094;11.288;2022-11-11T02:17:31;3.93;;;3.53;;
12332;SDS011;6232;48.094;11.288;2022-11-11T02:20:18;4.50;;;4.10;;
12332;SDS011;6232;48.094;11.288;2022-11-11T02:23:06;4.57;;;4.17;;
12332;SDS011;6232;48.094;11.288;2022-11-11T02:25:53;4.20;;;3.80;;
12332;SDS011;6232;48.094;11.288;2022-11-11T02:28:39;3.90;;;3.50;;
12332;SDS011;6232;48.094;11.288;2022-11-11T02:31:26;11.40;;;4.07;;
12332;SDS011;6232;48.094;11.288;2022-11-11T02:34:12;4.10;;;3.63;;
12332;SDS011;6232;48.094;11.288;2022-11-11T02:36:58;3.77;;;3.33;;
12332;SDS011;6232;48.094;11.288;2022-11-11T02:39:44;3.63;;;3.33;;
12332;SDS011;6232;48.094;11.288;2022-11-11T02:42:30;4.50;;;4.10;;
12332;SDS011;6232;48.094;11.288;2022-11-11T02:45:16;4.70;;;3.70;;
12332;SDS011;6232;48.094;11.288;2022-11-11T02:48:02;4.60;;;4.00;;
12332;SDS011;6232;48.094;11.288;2022-11-11T02:50:48;5.20;;;4.37;;
12332;SDS011;6232;48.094;11.288;2022-11-11T02:53:33;5.53;;;3.77;;
12332;SDS011;6232;48.094;11.288;2022-11-11T02:56:19;7.20;;;3.77;;
12332;SDS011;6232;48.094;11.288;2022-11-11T02:59:24;3.87;;;3.47;;
12332;SDS011;6232;48.094;11.288;2022-11-11T03:02:10;4.80;;;4.30;;
12332;SDS011;6232;48.094;11.288;2022-11-11T03:04:56;4.20;;;3.80;;
12332;SDS011;6232;48.094;11.288;2022-11-11T03:07:42;6.23;;;4.03;;
12332;SDS011;6232;48.094;11.288;2022-11-11T03:10:27;4.63;;;4.23;;
12332;SDS011;6232;48.094;11.288;2022-11-11T03:13:14;4.73;;;4.20;;
12332;SDS011;6232;48.094;11.288;2022-11-11T03:15:59;5.13;;;4.40;;
12332;SDS011;6232;48.094;11.288;2022-11-11T03:18:45;5.97;;;4.43;;
12332;SDS011;6232;48.094;11.288;2022-11-11T03:21:30;6.40;;;4.50;;
12332;SDS011;6232;48.094;11.288;2022-11-11T03:24:16;8.27;;;4.27;;
12332;SDS011;6232;48.094;11.288;2022-11-11T03:27:01;4.50;;;3.97;;
12332;SDS011;6232;48.094;11.288;2022-11-11T03:29:47;4.20;;;3.63;;
12332;SDS011;6232;48.094;11.288;2022-11-11T03:32:32;4.20;;;3.90;;
12332;SDS011;6232;48.094;11.288;2022-11-11T03:35:18;6.83;;;4.70;;
12332;SDS011;6232;48.094;11.288;2022-11-11T03:38:04;6.20;;;4.40;;
12332;SDS011;6232;48.094;11.288;2022-11-11T03:41:08;5.67;;;4.97;;
12332;SDS011;6232;48.094;11.288;2022-11-11T03:43:54;8.63;;;4.20;;
12332;SDS011;6232;48.094;11.288;2022-11-11T03:46:39;8.27;;;5.00;;
12332;SDS011;6232;48.094;11.288;2022-11-11T03:49:25;5.90;;;4.80;;
12332;SDS011;6232;48.094;11.288;2022-11-11T03:52:11;7.33;;;5.53;;
12332;SDS011;6232;48.094;11.288;2022-11-11T03:54:57;6.00;;;4.90;;
12332;SDS011;6232;48.094;11.288;2022-11-11T03:57:43;4.70;;;4.00;;
12332;SDS011;6232;48.094;11.288;2022-11-11T04:00:29;6.50;;;5.00;;
12332;SDS011;6232;48.094;11.288;2022-11-11T04:03:18;6.00;;;4.40;;
12332;SDS011;6232;48.094;11.288;2022-11-11T04:06:22;7.17;;;4.60;;
12332;SDS011;6232;48.094;11.288;2022-11-11T04:09:26;5.20;;;4.70;;
12332;SDS011;6232;48.094;11.288;2022-11-11T04:12:31;5.00;;;4.53;;
12332;SDS011;6232;48.094;11.288;2022-11-11T04:15:37;6.07;;;5.10;;
12332;SDS011;6232;48.094;11.288;2022-11-11T04:18:41;7.77;;;5.00;;
12332;SDS011;6232;48.094;11.288;2022-11-11T04:21:45;8.20;;;4.63;;
12332;SDS011;6232;48.094;11.288;2022-11-11T04:24:31;6.00;;;4.50;;
12332;SDS011;6232;48.094;11.288;2022-11-11T04:27:35;5.80;;;4.40;;
12332;SDS011;6232;48.094;11.288;2022-11-11T04:30:21;5.70;;;4.03;;
12332;SDS011;6232;48.094;11.288;2022-11-11T04:33:06;10.20;;;5.30;;
12332;SDS011;6232;48.094;11.288;2022-11-11T04:35:52;4.87;;;4.20;;
12332;SDS011;6232;48.094;11.288;2022-11-11T04:38:38;4.53;;;4.00;;
12332;SDS011;6232;48.094;11.288;2022-11-11T04:41:42;6.60;;;4.63;;
12332;SDS011;6232;48.094;11.288;2022-11-11T04:44:28;5.53;;;4.27;;
12332;SDS011;6232;48.094;11.288;2022-11-11T04:47:32;3.87;;;3.60;;
12332;SDS011;6232;48.094;11.288;2022-11-11T04:50:18;5.10;;;4.10;;
12332;SDS011;6232;48.094;11.288;2022-11-11T04:53:04;4.90;;;4.00;;
12332;SDS011;6232;48.094;11.288;2022-11-11T04:55:50;4.20;;;3.47;;
12332;SDS011;6232;48.094;11.288;2022-11-11T04:58:54;4.43;;;4.03;;
12332;SDS011;6232;48.094;11.288;2022-11-11T05:02:00;4.00;;;3.70;;
12332;SDS011;6232;48.094;11.288;2022-11-11T05:05:04;6.70;;;3.83;;
12332;SDS011;6232;48.094;11.288;2022-11-11T05:07:50;3.67;;;3.37;;
12332;SDS011;6232;48.094;11.288;2022-11-11T05:10:55;4.30;;;4.00;;
12332;SDS011;6232;48.094;11.288;2022-11-11T05:13:40;3.53;;;3.23;;
12332;SDS011;6232;48.094;11.288;2022-11-11T05:16:45;5.07;;;3.33;;
12332;SDS011;6232;48.094;11.288;2022-11-11T05:19:50;5.63;;;3.73;;
12332;SDS011;6232;48.094;11.288;2022-11-11T05:22:54;4.13;;;3.77;;
12332;SDS011;6232;48.094;11.288;2022-11-11T05:25:39;4.80;;;4.00;;
12332;SDS011;6232;48.094;11.288;2022-11-11T05:28:25;5.00;;;4.47;;
12332;SDS011;6232;48.094;11.288;2022-11-11T05:31:10;16.97;;;4.40;;
12332;SDS011;6232;48.094;11.288;2022-11-11T05:33:56;6.03;;;4.10;;
12332;SDS011;6232;48.094;11.288;2022-11-11T05:36:41;4.40;;;3.83;;
12332;SDS011;6232;48.094;11.288;2022-11-11T05:39:27;21.63;;;4.13;;
12332;SDS011;6232;48.094;11.288;2022-11-11T05:42:13;4.73;;;4.20;;
12332;SDS011;6232;48.094;11.288;2022-11-11T05:44:58;6.83;;;5.03;;
12332;SDS011;6232;48.094;11.288;2022-11-11T05:47:44;6.90;;;5.10;;
12332;SDS011;6232;48.094;11.288;2022-11-11T05:50:30;6.10;;;4.37;;
12332;SDS011;6232;48.094;11.288;2022-11-11T05:53:15;5.10;;;4.60;;
12332;SDS011;6232;48.094;11.288;2022-11-11T05:56:01;4.77;;;4.37;;
12332;SDS011;6232;48.094;11.288;2022-11-11T05:58:46;8.30;;;5.80;;
12332;SDS011;6232;48.094;11.288;2022-11-11T06:01:32;11.37;;;5.00;;
12332;SDS011;6232;48.094;11.288;2022-11-11T06:04:18;9.87;;;5.70;;
12332;SDS011;6232;48.094;11.288;2022-11-11T06:07:03;10.77;;;5.47;;
12332;SDS011;6232;48.094;11.288;2022-11-11T06:09:49;9.73;;;5.73;;
12332;SDS011;6232;48.094;11.288;2022-11-11T06:12:40;11.20;;;6.53;;
12332;SDS011;6232;48.094;11.288;2022-11-11T06:15:45;8.67;;;5.03;;
12332;SDS011;6232;48.094;11.288;2022-11-11T06:18:31;9.37;;;5.40;;
12332;SDS011;6232;48.094;11.288;2022-11-11T06:21:17;7.20;;;5.77;;
12332;SDS011;6232;48.094;11.288;2022-11-11T06:24:03;5.57;;;5.07;;
12332;SDS011;6232;48.094;11.288;2022-11-11T06:26:48;10.37;;;6.60;;
12332;SDS011;6232;48.094;11.288;2022-11-11T06:29:34;13.40;;;6.17;;
12332;SDS011;6232;48.094;11.288;2022-11-11T06:32:19;19.10;;;6.33;;
12332;SDS011;6232;48.094;11.288;2022-11-11T06:35:05;11.03;;;5.90;;
12332;SDS011;6232;48.094;11.288;2022-11-11T06:37:51;7.17;;;5.40;;
12332;SDS011;6232;48.094;11.288;2022-11-11T06:40:36;6.97;;;5.73;;
12332;SDS011;6232;48.094;11.288;2022-11-11T06:43:22;7.40;;;5.43;;
12332;SDS011;6232;48.094;11.288;2022-11-11T06:46:13;7.13;;;5.47;;
12332;SDS011;6232;48.094;11.288;2022-11-11T06:49:00;12.87;;;7.60;;
12332;SDS011;6232;48.094;11.288;2022-11-11T06:51:47;14.47;;;9.30;;
12332;SDS011;6232;48.094;11.288;2022-11-11T06:54:33;12.00;;;7.93;;
12332;SDS011;6232;48.094;11.288;2022-11-11T06:57:18;14.73;;;9.27;;
12332;SDS011;6232;48.094;11.288;2022-11-11T07:00:06;17.53;;;10.40;;
12332;SDS011;6232;48.094;11.288;2022-11-11T07:02:55;15.27;;;10.70;;
12332;SDS011;6232;48.094;11.288;2022-11-11T07:05:41;10.03;;;6.53;;
12332;SDS011;6232;48.094;11.288;2022-11-11T07:08:27;7.80;;;6.40;;
12332;SDS011;6232;48.094;11.288;2022-11-11T07:11:13;7.97;;;6.47;;
12332;SDS011;6232;48.094;11.288;2022-11-11T07:13:58;7.53;;;4.70;;
12332;SDS011;6232;48.094;11.288;2022-11-11T07:16:44;11.37;;;5.70;;
12332;SDS011;6232;48.094;11.288;2022-11-11T07:19:29;8.43;;;5.50;;
12332;SDS011;6232;48.094;11.288;2022-11-11T07:22:15;7.90;;;6.20;;
12332;SDS011;6232;48.094;11.288;2022-11-11T07:25:01;9.30;;;7.77;;
12332;SDS011;6232;48.094;11.288;2022-11-11T07:27:47;14.60;;;6.53;;
12332;SDS011;6232;48.094;11.288;2022-11-11T07:30:32;6.60;;;5.53;;
12332;SDS011;6232;48.094;11.288;2022-11-11T07:33:18;15.23;;;8.90;;
12332;SDS011;6232;48.094;11.288;2022-11-11T07:36:03;24.77;;;13.77;;
12332;SDS011;6232;48.094;11.288;2022-11-11T07:38:49;17.33;;;12.20;;
12332;SDS011;6232;48.094;11.288;2022-11-11T07:41:35;23.53;;;11.63;;
12332;SDS011;6232;48.094;11.288;2022-11-11T07:44:20;20.97;;;13.77;;
12332;SDS011;6232;48.094;11.288;2022-11-11T07:47:06;17.70;;;11.83;;
12332;SDS011;6232;48.094;11.288;2022-11-11T07:49:52;21.90;;;13.80;;
12332;SDS011;6232;48.094;11.288;2022-11-11T07:52:37;14.40;;;10.53;;
12332;SDS011;6232;48.094;11.288;2022-11-11T07:55:23;19.47;;;12.20;;
12332;SDS011;6232;48.094;11.288;2022-11-11T07:58:09;13.27;;;11.50;;
12332;SDS011;6232;48.094;11.288;2022-11-11T08:00:55;12.90;;;10.80;;
12332;SDS011;6232;48.094;11.288;2022-11-11T08:03:43;16.23;;;10.57;;
12332;SDS011;6232;48.094;11.288;2022-11-11T08:06:34;16.20;;;8.50;;
12332;SDS011;6232;48.094;11.288;2022-11-11T08:09:20;11.23;;;7.83;;
12332;SDS011;6232;48.094;11.288;2022-11-11T08:12:06;9.63;;;6.70;;
12332;SDS011;6232;48.094;11.288;2022-11-11T08:15:10;9.27;;;6.73;;
12332;SDS011;6232;48.094;11.288;2022-11-11T08:17:55;11.70;;;5.73;;
12332;SDS011;6232;48.094;11.288;2022-11-11T08:20:41;7.30;;;6.20;;
12332;SDS011;6232;48.094;11.288;2022-11-11T08:23:27;11.20;;;7.10;;
12332;SDS011;6232;48.094;11.288;2022-11-11T08:26:19;11.77;;;6.77;;
12332;SDS011;6232;48.094;11.288;2022-11-11T08:29:05;10.73;;;6.27;;
12332;SDS011;6232;48.094;11.288;2022-11-11T08:31:51;6.73;;;6.13;;
12332;SDS011;6232;48.094;11.288;2022-11-11T08:34:37;6.60;;;5.90;;
12332;SDS011;6232;48.094;11.288;2022-11-11T08:37:23;12.73;;;5.90;;
12332;SDS011;6232;48.094;11.288;2022-11-11T08:43:32;6.80;;;5.00;;
12332;SDS011;6232;48.094;11.288;2022-11-11T08:46:25;10.13;;;5.90;;
12332;SDS011;6232;48.094;11.288;2022-11-11T08:49:32;10.13;;;5.57;;
12332;SDS011;6232;48.094;11.288;2022-11-11T08:52:17;14.93;;;5.60;;
12332;SDS011;6232;48.094;11.288;2022-11-11T08:55:02;6.83;;;4.67;;
12332;SDS011;6232;48.094;11.288;2022-11-11T08:57:55;10.63;;;6.00;;
12332;SDS011;6232;48.094;11.288;2022-11-11T09:00:41;9.23;;;5.17;;
12332;SDS011;6232;48.094;11.288;2022-11-11T09:03:27;8.57;;;4.90;;
12332;SDS011;6232;48.094;11.288;2022-11-11T09:06:13;4.80;;;4.20;;
12332;SDS011;6232;48.094;11.288;2022-11-11T09:08:58;5.50;;;4.13;;
12332;SDS011;6232;48.094;11.288;2022-11-11T09:11:44;10.47;;;5.40;;
12332;SDS011;6232;48.094;11.288;2022-11-11T09:14:29;10.23;;;3.90;;
12332;SDS011;6232;48.094;11.288;2022-11-11T09:17:15;14.80;;;4.87;;
12332;SDS011;6232;48.094;11.288;2022-11-11T09:20:01;5.73;;;4.50;;
12332;SDS011;6232;48.094;11.288;2022-11-11T09:22:47;7.20;;;5.33;;
12332;SDS011;6232;48.094;11.288;2022-11-11T09:25:33;16.00;;;5.63;;
12332;SDS011;6232;48.094;11.288;2022-11-11T09:28:18;6.73;;;6.13;;
12332;SDS011;6232;48.094;11.288;2022-11-11T09:31:04;4.90;;;4.47;;
12332;SDS011;6232;48.094;11.288;2022-11-11T09:33:50;6.43;;;3.97;;
12332;SDS011;6232;48.094;11.288;2022-11-11T09:36:35;7.30;;;4.10;;
12332;SDS011;6232;48.094;11.288;2022-11-11T09:39:21;4.73;;;2.73;;
12332;SDS011;6232;48.094;11.288;2022-11-11T09:42:13;12.00;;;3.53;;
12332;SDS011;6232;48.094;11.288;2022-11-11T09:45:09;4.30;;;3.07;;
12332;SDS011;6232;48.094;11.288;2022-11-11T10:06:40;3.20;;;2.20;;
12332;SDS011;6232;48.094;11.288;2022-11-11T10:14:42;2.43;;;2.20;;
12332;SDS011;6232;48.094;11.288;2022-11-11T10:23:02;2.53;;;2.33;;
12332;SDS011;6232;48.094;11.288;2022-11-11T10:25:50;2.60;;;2.40;;
12332;SDS011;6232;48.094;11.288;2022-11-11T10:28:37;2.40;;;2.20;;
12332;SDS011;6232;48.094;11.288;2022-11-11T10:31:26;8.47;;;2.87;;
12332;SDS011;6232;48.094;11.288;2022-11-11T10:34:12;5.03;;;2.20;;
12332;SDS011;6232;48.094;11.288;2022-11-11T10:36:58;2.53;;;2.20;;
12332;SDS011;6232;48.094;11.288;2022-11-11T10:42:42;6.80;;;2.03;;
12332;SDS011;6232;48.094;11.288;2022-11-11T10:45:30;3.10;;;2.20;;
12332;SDS011;6232;48.094;11.288;2022-11-11T10:48:22;2.50;;;2.20;;
12332;SDS011;6232;48.094;11.288;2022-11-11T10:51:09;2.10;;;2.00;;
12332;SDS011;6232;48.094;11.288;2022-11-11T10:57:01;1.70;;;1.60;;
12332;SDS011;6232;48.094;11.288;2022-11-11T11:05:43;2.27;;;2.07;;
12332;SDS011;6232;48.094;11.288;2022-11-11T11:08:33;7.87;;;2.87;;
12332;SDS011;6232;48.094;11.288;2022-11-11T11:12:04;2.60;;;2.13;;
12332;SDS011;6232;48.094;11.288;2022-11-11T11:14:33;2.57;;;2.37;;
12332;SDS011;6232;48.094;11.288;2022-11-11T11:17:21;7.90;;;2.57;;
12332;SDS011;6232;48.094;11.288;2022-11-11T11:20:14;4.70;;;2.60;;
12332;SDS011;6232;48.094;11.288;2022-11-11T11:23:00;7.40;;;2.20;;
12332;SDS011;6232;48.094;11.288;2022-11-11T11:25:53;3.43;;;2.57;;
12332;SDS011;6232;48.094;11.288;2022-11-11T11:28:56;2.17;;;1.97;;
12332;SDS011;6232;48.094;11.288;2022-11-11T11:31:41;8.00;;;2.13;;
12332;SDS011;6232;48.094;11.288;2022-11-11T11:34:46;10.00;;;2.10;;
12332;SDS011;6232;48.094;11.288;2022-11-11T11:37:33;3.00;;;2.20;;
12332;SDS011;6232;48.094;11.288;2022-11-11T11:40:44;3.10;;;2.20;;
12332;SDS011;6232;48.094;11.288;2022-11-11T11:43:32;2.40;;;1.97;;
12332;SDS011;6232;48.094;11.288;2022-11-11T11:46:19;2.30;;;2.10;;
12332;SDS011;6232;48.094;11.288;2022-11-11T12:01:22;3.87;;;1.90;;
12332;SDS011;6232;48.094;11.288;2022-11-11T12:03:57;3.07;;;1.97;;
12332;SDS011;6232;48.094;11.288;2022-11-11T12:12:39;1.73;;;1.63;;
12332;SDS011;6232;48.094;11.288;2022-11-11T12:15:30;2.30;;;2.10;;
12332;SDS011;6232;48.094;11.288;2022-11-11T12:18:53;2.47;;;2.27;;
12332;SDS011;6232;48.094;11.288;2022-11-11T12:21:36;2.70;;;2.13;;
12332;SDS011;6232;48.094;11.288;2022-11-11T12:24:34;5.53;;;2.03;;
12332;SDS011;6232;48.094;11.288;2022-11-11T12:30:12;2.40;;;2.07;;
12332;SDS011;6232;48.094;11.288;2022-11-11T12:33:16;2.00;;;1.80;;
12332;SDS011;6232;48.094;11.288;2022-11-11T12:39:04;2.90;;;1.87;;
12332;SDS011;6232;48.094;11.288;2022-11-11T12:42:07;2.27;;;2.07;;
12332;SDS011;6232;48.094;11.288;2022-11-11T12:47:50;3.57;;;1.90;;
12332;SDS011;6232;48.094;11.288;2022-11-11T12:50:43;2.30;;;2.10;;
12332;SDS011;6232;48.094;11.288;2022-11-11T12:53:51;2.33;;;2.07;;
12332;SDS011;6232;48.094;11.288;2022-11-11T12:56:45;4.53;;;2.10;;
12332;SDS011;6232;48.094;11.288;2022-11-11T13:14:57;5.67;;;2.10;;
12332;SDS011;6232;48.094;11.288;2022-11-11T13:17:46;2.53;;;2.23;;
12332;SDS011;6232;48.094;11.288;2022-11-11T13:20:40;3.33;;;2.57;;
12332;SDS011;6232;48.094;11.288;2022-11-11T13:23:27;2.23;;;2.03;;
12332;SDS011;6232;48.094;11.288;2022-11-11T13:26:56;2.90;;;2.40;;
12332;SDS011;6232;48.094;11.288;2022-11-11T13:32:29;5.13;;;2.50;;
12332;SDS011;6232;48.094;11.288;2022-11-11T13:35:29;4.20;;;2.57;;
12332;SDS011;6232;48.094;11.288;2022-11-11T13:38:24;4.43;;;2.87;;
12332;SDS011;6232;48.094;11.288;2022-11-11T13:41:10;4.17;;;2.90;;
12332;SDS011;6232;48.094;11.288;2022-11-11T13:44:01;6.00;;;3.30;;
12332;SDS011;6232;48.094;11.288;2022-11-11T13:46:48;8.50;;;3.73;;
12332;SDS011;6232;48.094;11.288;2022-11-11T13:52:26;2.93;;;2.63;;
12332;SDS011;6232;48.094;11.288;2022-11-11T13:55:46;4.17;;;3.60;;
12332;SDS011;6232;48.094;11.288;2022-11-11T13:58:35;3.80;;;3.50;;
12332;SDS011;6232;48.094;11.288;2022-11-11T14:01:21;4.60;;;4.20;;
12332;SDS011;6232;48.094;11.288;2022-11-11T14:04:07;6.20;;;3.17;;
12332;SDS011;6232;48.094;11.288;2022-11-11T14:06:53;8.23;;;3.30;;
12332;SDS011;6232;48.094;11.288;2022-11-11T14:12:38;5.67;;;4.30;;
12332;SDS011;6232;48.094;11.288;2022-11-11T14:15:43;5.03;;;3.60;;
12332;SDS011;6232;48.094;11.288;2022-11-11T14:18:34;6.00;;;4.10;;
12332;SDS011;6232;48.094;11.288;2022-11-11T14:24:40;5.10;;;4.10;;
12332;SDS011;6232;48.094;11.288;2022-11-11T14:27:31;5.97;;;5.40;;
12332;SDS011;6232;48.094;11.288;2022-11-11T14:30:27;8.23;;;5.63;;
12332;SDS011;6232;48.094;11.288;2022-11-11T14:36:07;8.80;;;5.80;;
12332;SDS011;6232;48.094;11.288;2022-11-11T14:42:03;6.57;;;5.07;;
12332;SDS011;6232;48.094;11.288;2022-11-11T14:44:49;8.80;;;5.90;;
12332;SDS011;6232;48.094;11.288;2022-11-11T14:53:18;6.17;;;5.57;;
12332;SDS011;6232;48.094;11.288;2022-11-11T14:56:04;8.30;;;6.07;;
12332;SDS011;6232;48.094;11.288;2022-11-11T14:58:58;7.87;;;6.93;;
12332;SDS011;6232;48.094;11.288;2022-11-11T15:01:47;15.27;;;10.80;;
12332;SDS011;6232;48.094;11.288;2022-11-11T15:04:36;12.83;;;8.43;;
12332;SDS011;6232;48.094;11.288;2022-11-11T15:07:25;11.20;;;8.00;;
12332;SDS011;6232;48.094;11.288;2022-11-11T15:16:02;16.60;;;9.60;;
12332;SDS011;6232;48.094;11.288;2022-11-11T15:19:02;11.10;;;9.20;;
12332;SDS011;6232;48.094;11.288;2022-11-11T15:27:43;14.73;;;9.97;;
12332;SDS011;6232;48.094;11.288;2022-11-11T15:34:05;10.20;;;9.20;;
12332;SDS011;6232;48.094;11.288;2022-11-11T15:39:49;16.90;;;10.43;;
12332;SDS011;6232;48.094;11.288;2022-11-11T15:42:36;15.97;;;11.77;;
12332;SDS011;6232;48.094;11.288;2022-11-11T15:45:23;13.90;;;10.90;;
12332;SDS011;6232;48.094;11.288;2022-11-11T15:48:18;12.90;;;10.03;;
12332;SDS011;6232;48.094;11.288;2022-11-11T15:54:20;13.70;;;10.87;;
12332;SDS011;6232;48.094;11.288;2022-11-11T16:03:13;18.23;;;14.93;;
12332;SDS011;6232;48.094;11.288;2022-11-11T16:06:00;19.43;;;15.07;;
12332;SDS011;6232;48.094;11.288;2022-11-11T16:08:48;25.63;;;14.47;;
12332;SDS011;6232;48.094;11.288;2022-11-11T16:11:36;19.70;;;13.90;;
12332;SDS011;6232;48.094;11.288;2022-11-11T16:14:24;16.57;;;14.30;;
12332;SDS011;6232;48.094;11.288;2022-11-11T16:17:13;23.67;;;13.67;;
12332;SDS011;6232;48.094;11.288;2022-11-11T16:19:59;14.17;;;12.70;;
12332;SDS011;6232;48.094;11.288;2022-11-11T16:22:46;16.13;;;12.90;;
12332;SDS011;6232;48.094;11.288;2022-11-11T16:25:32;16.63;;;13.03;;
12332;SDS011;6232;48.094;11.288;2022-11-11T16:28:18;18.83;;;12.17;;
12332;SDS011;6232;48.094;11.288;2022-11-11T16:31:20;14.57;;;12.03;;
12332;SDS011;6232;48.094;11.288;2022-11-11T16:37:10;14.70;;;12.40;;
12332;SDS011;6232;48.094;11.288;2022-11-11T16:40:23;16.73;;;13.37;;
12332;SDS011;6232;48.094;11.288;2022-11-11T16:43:16;17.03;;;13.83;;
12332;SDS011;6232;48.094;11.288;2022-11-11T16:46:04;17.80;;;13.93;;
12332;SDS011;6232;48.094;11.288;2022-11-11T16:48:50;15.77;;;14.13;;
12332;SDS011;6232;48.094;11.288;2022-11-11T16:51:43;20.30;;;14.60;;
12332;SDS011;6232;48.094;11.288;2022-11-11T16:54:30;14.40;;;12.80;;
12332;SDS011;6232;48.094;11.288;2022-11-11T16:57:27;26.97;;;13.93;;
12332;SDS011;6232;48.094;11.288;2022-11-11T17:00:14;19.70;;;12.90;;
12332;SDS011;6232;48.094;11.288;2022-11-11T17:05:59;15.37;;;12.23;;
12332;SDS011;6232;48.094;11.288;2022-11-11T17:08:45;31.53;;;17.80;;
12332;SDS011;6232;48.094;11.288;2022-11-11T17:14:26;16.03;;;11.67;;
12332;SDS011;6232;48.094;11.288;2022-11-11T17:17:12;13.37;;;9.80;;
12332;SDS011;6232;48.094;11.288;2022-11-11T17:20:02;16.10;;;10.53;;
12332;SDS011;6232;48.094;11.288;2022-11-11T17:22:52;12.20;;;8.63;;
12332;SDS011;6232;48.094;11.288;2022-11-11T17:25:38;14.03;;;9.63;;
12332;SDS011;6232;48.094;11.288;2022-11-11T17:28:23;14.00;;;10.33;;
12332;SDS011;6232;48.094;11.288;2022-11-11T17:31:09;10.03;;;8.50;;
12332;SDS011;6232;48.094;11.288;2022-11-11T17:33:55;13.03;;;9.23;;
12332;SDS011;6232;48.094;11.288;2022-11-11T17:36:41;15.00;;;10.13;;
12332;SDS011;6232;48.094;11.288;2022-11-11T17:39:26;19.87;;;9.50;;
12332;SDS011;6232;48.094;11.288;2022-11-11T17:42:12;10.20;;;8.20;;
12332;SDS011;6232;48.094;11.288;2022-11-11T17:44:58;10.10;;;7.83;;
12332;SDS011;6232;48.094;11.288;2022-11-11T17:47:44;12.70;;;7.63;;
12332;SDS011;6232;48.094;11.288;2022-11-11T17:50:29;8.27;;;7.47;;
12332;SDS011;6232;48.094;11.288;2022-11-11T17:53:15;16.83;;;11.00;;
12332;SDS011;6232;48.094;11.288;2022-11-11T17:56:04;10.00;;;8.20;;
12332;SDS011;6232;48.094;11.288;2022-11-11T17:58:52;13.13;;;8.73;;
12332;SDS011;6232;48.094;11.288;2022-11-11T18:01:37;14.10;;;9.10;;
12332;SDS011;6232;48.094;11.288;2022-11-11T18:04:23;11.30;;;8.57;;
12332;SDS011;6232;48.094;11.288;2022-11-11T18:07:09;9.90;;;7.77;;
12332;SDS011;6232;48.094;11.288;2022-11-11T18:09:54;12.00;;;8.30;;
12332;SDS011;6232;48.094;11.288;2022-11-11T18:12:40;10.07;;;7.90;;
12332;SDS011;6232;48.094;11.288;2022-11-11T18:15:26;12.90;;;9.10;;
12332;SDS011;6232;48.094;11.288;2022-11-11T18:18:11;16.00;;;9.37;;
12332;SDS011;6232;48.094;11.288;2022-11-11T18:21:12;13.70;;;11.00;;
12332;SDS011;6232;48.094;11.288;2022-11-11T18:23:57;23.30;;;14.20;;
12332;SDS011;6232;48.094;11.288;2022-11-11T18:26:42;14.33;;;12.63;;
12332;SDS011;6232;48.094;11.288;2022-11-11T18:29:28;13.53;;;11.93;;
12332;SDS011;6232;48.094;11.288;2022-11-11T18:32:15;17.80;;;12.00;;
12332;SDS011;6232;48.094;11.288;2022-11-11T18:35:01;13.90;;;8.00;;
12332;SDS011;6232;48.094;11.288;2022-11-11T18:37:46;10.00;;;8.03;;
12332;SDS011;6232;48.094;11.288;2022-11-11T18:40:32;12.00;;;9.93;;
12332;SDS011;6232;48.094;11.288;2022-11-11T18:43:18;14.80;;;9.87;;
12332;SDS011;6232;48.094;11.288;2022-11-11T18:46:04;14.90;;;9.63;;
12332;SDS011;6232;48.094;11.288;2022-11-11T18:48:51;25.20;;;9.53;;
12332;SDS011;6232;48.094;11.288;2022-11-11T18:51:40;15.27;;;10.60;;
12332;SDS011;6232;48.094;11.288;2022-11-11T18:54:25;27.17;;;11.37;;
12332;SDS011;6232;48.094;11.288;2022-11-11T18:57:11;17.90;;;9.60;;
12332;SDS011;6232;48.094;11.288;2022-11-11T18:59:56;12.20;;;8.97;;
12332;SDS011;6232;48.094;11.288;2022-11-11T19:02:42;13.67;;;8.73;;
12332;SDS011;6232;48.094;11.288;2022-11-11T19:05:28;15.47;;;12.20;;
12332;SDS011;6232;48.094;11.288;2022-11-11T19:08:15;15.00;;;11.27;;
12332;SDS011;6232;48.094;11.288;2022-11-11T19:11:04;19.40;;;12.00;;
12332;SDS011;6232;48.094;11.288;2022-11-11T19:13:50;13.70;;;11.10;;
12332;SDS011;6232;48.094;11.288;2022-11-11T19:16:36;13.30;;;8.63;;
12332;SDS011;6232;48.094;11.288;2022-11-11T19:19:22;14.50;;;10.47;;
12332;SDS011;6232;48.094;11.288;2022-11-11T19:22:07;14.80;;;9.20;;
12332;SDS011;6232;48.094;11.288;2022-11-11T19:24:53;14.57;;;9.17;;
12332;SDS011;6232;48.094;11.288;2022-11-11T19:27:39;14.80;;;10.53;;